sensor_id;sensor_type;location;lat;lon;timestamp;pressure;altitude;pressure_sealevel;temperature;humidity
29461;BME280;16428;47.836;35.106;2023-02-04T00:02:07;100884.59;;;1.81;100.00
29461;BME280;16428;47.836;35.106;2023-02-04T00:04:39;100886.44;;;1.56;100.00
29461;BME280;16428;47.836;35.106;2023-02-04T00:07:07;100879.50;;;1.66;100.00
29461;BME280;16428;47.836;35.106;2023-02-04T00:09:39;100887.03;;;1.49;100.00
29461;BME280;16428;47.836;35.106;2023-02-04T00:12:07;100882.34;;;1.52;100.00
29461;BME280;16428;47.836;35.106;2023-02-04T00:14:37;100880.47;;;1.65;100.00
29461;BME280;16428;47.836;35.106;2023-02-04T00:17:05;100878.41;;;1.69;100.00
29461;BME280;16428;47.836;35.106;2023-02-04T00:19:35;100879.94;;;1.49;100.00
29461;BME280;16428;47.836;35.106;2023-02-04T00:22:03;100883.84;;;1.67;100.00
29461;BME280;16428;47.836;35.106;2023-02-04T00:24:32;100876.00;;;1.66;100.00
29461;BME280;16428;47.836;35.106;2023-02-04T00:26:59;100871.56;;;1.66;100.00
29461;BME280;16428;47.836;35.106;2023-02-04T00:29:27;100877.44;;;1.70;100.00
29461;BME280;16428;47.836;35.106;2023-02-04T00:31:55;100876.00;;;1.66;100.00
29461;BME280;16428;47.836;35.106;2023-02-04T00:34:24;100869.78;;;1.78;100.00
29461;BME280;16428;47.836;35.106;2023-02-04T00:36:52;100868.50;;;1.49;100.00
29461;BME280;16428;47.836;35.106;2023-02-04T00:39:20;100872.53;;;1.65;100.00
29461;BME280;16428;47.836;35.106;2023-02-04T00:41:48;100868.97;;;1.54;100.00
29461;BME280;16428;47.836;35.106;2023-02-04T00:44:16;100864.94;;;1.72;100.00
29461;BME280;16428;47.836;35.106;2023-02-04T00:46:43;100866.63;;;1.73;100.00
29461;BME280;16428;47.836;35.106;2023-02-04T00:49:11;100860.25;;;1.64;100.00
29461;BME280;16428;47.836;35.106;2023-02-04T00:51:40;100865.16;;;1.69;100.00
29461;BME280;16428;47.836;35.106;2023-02-04T00:54:11;100856.25;;;1.70;100.00
29461;BME280;16428;47.836;35.106;2023-02-04T00:56:39;100844.97;;;1.79;100.00
29461;BME280;16428;47.836;35.106;2023-02-04T00:59:07;100848.16;;;1.49;100.00
29461;BME280;16428;47.836;35.106;2023-02-04T01:01:36;100850.13;;;1.69;100.00
29461;BME280;16428;47.836;35.106;2023-02-04T01:04:06;100840.88;;;1.86;100.00
29461;BME280;16428;47.836;35.106;2023-02-04T01:06:36;100845.19;;;1.65;100.00
29461;BME280;16428;47.836;35.106;2023-02-04T01:09:04;100840.88;;;1.86;100.00
29461;BME280;16428;47.836;35.106;2023-02-04T01:11:33;100841.00;;;1.73;100.00
29461;BME280;16428;47.836;35.106;2023-02-04T01:14:03;100829.94;;;1.80;100.00
29461;BME280;16428;47.836;35.106;2023-02-04T01:16:31;100835.34;;;1.67;100.00
29461;BME280;16428;47.836;35.106;2023-02-04T01:19:01;100826.78;;;1.74;100.00
29461;BME280;16428;47.836;35.106;2023-02-04T01:21:31;100833.16;;;1.72;100.00
29461;BME280;16428;47.836;35.106;2023-02-04T01:24:00;100830.06;;;1.89;100.00
29461;BME280;16428;47.836;35.106;2023-02-04T01:26:28;100834.13;;;1.71;100.00
29461;BME280;16428;47.836;35.106;2023-02-04T01:28:57;100833.44;;;1.80;100.00
29461;BME280;16428;47.836;35.106;2023-02-04T01:31:25;100838.97;;;1.77;100.00
29461;BME280;16428;47.836;35.106;2023-02-04T01:33:53;100833.44;;;1.80;100.00
29461;BME280;16428;47.836;35.106;2023-02-04T01:36:23;100832.81;;;1.65;100.00
29461;BME280;16428;47.836;35.106;2023-02-04T01:38:52;100836.88;;;1.69;100.00
29461;BME280;16428;47.836;35.106;2023-02-04T01:41:21;100834.16;;;1.82;100.00
29461;BME280;16428;47.836;35.106;2023-02-04T01:43:49;100837.88;;;1.91;100.00
29461;BME280;16428;47.836;35.106;2023-02-04T01:46:17;100830.06;;;1.89;100.00
29461;BME280;16428;47.836;35.106;2023-02-04T01:48:46;100832.47;;;1.81;100.00
29461;BME280;16428;47.836;35.106;2023-02-04T01:51:16;100830.31;;;1.97;100.00
29461;BME280;16428;47.836;35.106;2023-02-04T01:53:49;100830.72;;;1.58;100.00
29461;BME280;16428;47.836;35.106;2023-02-04T01:56:21;100832.63;;;1.56;100.00
29461;BME280;16428;47.836;35.106;2023-02-04T01:58:52;100832.69;;;1.78;100.00
29461;BME280;16428;47.836;35.106;2023-02-04T02:01:42;100830.78;;;1.80;100.00
29461;BME280;16428;47.836;35.106;2023-02-04T02:04:17;100837.38;;;1.74;100.00
29461;BME280;16428;47.836;35.106;2023-02-04T02:06:51;100828.97;;;1.81;100.00
29461;BME280;16428;47.836;35.106;2023-02-04T02:09:22;100835.22;;;1.80;100.00
29461;BME280;16428;47.836;35.106;2023-02-04T02:11:53;100835.25;;;1.91;100.00
29461;BME280;16428;47.836;35.106;2023-02-04T02:14:22;100831.25;;;1.85;100.00
29461;BME280;16428;47.836;35.106;2023-02-04T02:16:50;100834.22;;;1.69;100.00
29461;BME280;16428;47.836;35.106;2023-02-04T02:19:28;100832.69;;;1.67;100.00
29461;BME280;16428;47.836;35.106;2023-02-04T02:22:04;100834.41;;;1.90;100.00
29461;BME280;16428;47.836;35.106;2023-02-04T02:24:34;100831.97;;;1.76;100.00
29461;BME280;16428;47.836;35.106;2023-02-04T02:27:05;100834.09;;;1.60;100.00
29461;BME280;16428;47.836;35.106;2023-02-04T02:29:39;100824.97;;;1.64;100.00
29461;BME280;16428;47.836;35.106;2023-02-04T02:32:10;100827.53;;;1.88;100.00
29461;BME280;16428;47.836;35.106;2023-02-04T02:34:39;100827.63;;;1.64;100.00
29461;BME280;16428;47.836;35.106;2023-02-04T02:37:08;100832.53;;;1.57;100.00
29461;BME280;16428;47.836;35.106;2023-02-04T02:39:38;100828.41;;;1.53;100.00
29461;BME280;16428;47.836;35.106;2023-02-04T02:42:09;100834.16;;;1.82;100.00
29461;BME280;16428;47.836;35.106;2023-02-04T02:44:37;100832.09;;;1.74;100.00
29461;BME280;16428;47.836;35.106;2023-02-04T02:47:05;100835.78;;;1.61;100.00
29461;BME280;16428;47.836;35.106;2023-02-04T02:49:33;100840.84;;;1.64;100.00
29461;BME280;16428;47.836;35.106;2023-02-04T02:52:03;100831.50;;;1.82;100.00
29461;BME280;16428;47.836;35.106;2023-02-04T02:54:31;100828.38;;;1.77;100.00
29461;BME280;16428;47.836;35.106;2023-02-04T02:57:00;100832.69;;;1.78;100.00
29461;BME280;16428;47.836;35.106;2023-02-04T02:59:28;100829.56;;;1.84;100.00
29461;BME280;16428;47.836;35.106;2023-02-04T03:02:01;100828.16;;;2.02;100.00
29461;BME280;16428;47.836;35.106;2023-02-04T03:04:32;100835.00;;;1.83;100.00
29461;BME280;16428;47.836;35.106;2023-02-04T03:07:02;100819.97;;;1.83;100.00
29461;BME280;16428;47.836;35.106;2023-02-04T03:09:30;100827.28;;;1.80;100.00
29461;BME280;16428;47.836;35.106;2023-02-04T03:12:00;100822.59;;;1.83;100.00
29461;BME280;16428;47.836;35.106;2023-02-04T03:14:28;100824.25;;;1.84;100.00
29461;BME280;16428;47.836;35.106;2023-02-04T03:16:56;100823.63;;;1.69;100.00
29461;BME280;16428;47.836;35.106;2023-02-04T03:19:26;100826.69;;;1.76;100.00
29461;BME280;16428;47.836;35.106;2023-02-04T03:21:55;100819.47;;;1.78;100.00
29461;BME280;16428;47.836;35.106;2023-02-04T03:24:25;100813.44;;;1.76;100.00
29461;BME280;16428;47.836;35.106;2023-02-04T03:26:54;100821.75;;;1.83;100.00
29461;BME280;16428;47.836;35.106;2023-02-04T03:29:23;100818.28;;;1.82;100.00
29461;BME280;16428;47.836;35.106;2023-02-04T03:31:52;100820.53;;;1.75;100.00
29461;BME280;16428;47.836;35.106;2023-02-04T03:34:22;100812.97;;;1.82;100.00
29461;BME280;16428;47.836;35.106;2023-02-04T03:36:52;100820.69;;;1.96;100.00
29461;BME280;16428;47.836;35.106;2023-02-04T03:39:20;100823.56;;;1.93;100.00
29461;BME280;16428;47.836;35.106;2023-02-04T03:41:49;100817.44;;;1.93;100.00
29461;BME280;16428;47.836;35.106;2023-02-04T03:44:17;100822.84;;;2.02;100.00
29461;BME280;16428;47.836;35.106;2023-02-04T03:46:46;100831.75;;;1.90;100.00
29461;BME280;16428;47.836;35.106;2023-02-04T03:49:16;100836.75;;;1.71;100.00
29461;BME280;16428;47.836;35.106;2023-02-04T03:51:45;100837.25;;;1.76;100.00
29461;BME280;16428;47.836;35.106;2023-02-04T03:54:15;100842.13;;;1.93;100.00
29461;BME280;16428;47.836;35.106;2023-02-04T03:56:44;100844.75;;;1.82;100.00
29461;BME280;16428;47.836;35.106;2023-02-04T03:59:16;100848.59;;;1.89;100.00
29461;BME280;16428;47.836;35.106;2023-02-04T04:01:48;100861.09;;;1.76;100.00
29461;BME280;16428;47.836;35.106;2023-02-04T04:04:18;100856.75;;;1.64;100.00
29461;BME280;16428;47.836;35.106;2023-02-04T04:06:52;100852.44;;;1.85;100.00
29461;BME280;16428;47.836;35.106;2023-02-04T04:09:22;100863.25;;;1.71;100.00
29461;BME280;16428;47.836;35.106;2023-02-04T04:12:00;100863.72;;;1.65;100.00
29461;BME280;16428;47.836;35.106;2023-02-04T04:14:30;100863.41;;;1.81;100.00
29461;BME280;16428;47.836;35.106;2023-02-04T04:16:58;100866.16;;;1.68;100.00
29461;BME280;16428;47.836;35.106;2023-02-04T04:19:28;100869.09;;;1.52;100.00
29461;BME280;16428;47.836;35.106;2023-02-04T04:22:00;100872.31;;;1.45;100.00
29461;BME280;16428;47.836;35.106;2023-02-04T04:24:29;100872.38;;;1.32;100.00
29461;BME280;16428;47.836;35.106;2023-02-04T04:27:01;100871.03;;;1.26;100.00
29461;BME280;16428;47.836;35.106;2023-02-04T04:29:29;100871.31;;;1.34;100.00
29461;BME280;16428;47.836;35.106;2023-02-04T04:31:57;100869.47;;;1.59;100.00
29461;BME280;16428;47.836;35.106;2023-02-04T04:34:25;100874.88;;;1.57;100.00
29461;BME280;16428;47.836;35.106;2023-02-04T04:36:53;100873.31;;;1.55;100.00
29461;BME280;16428;47.836;35.106;2023-02-04T04:39:21;100875.75;;;1.69;100.00
29461;BME280;16428;47.836;35.106;2023-02-04T04:41:49;100883.59;;;1.35;100.00
29461;BME280;16428;47.836;35.106;2023-02-04T04:44:17;100882.97;;;1.32;100.00
29461;BME280;16428;47.836;35.106;2023-02-04T04:46:44;100880.56;;;1.29;100.00
29461;BME280;16428;47.836;35.106;2023-02-04T04:49:13;100883.94;;;1.31;100.00
29461;BME280;16428;47.836;35.106;2023-02-04T04:51:40;100887.53;;;1.30;100.00
29461;BME280;16428;47.836;35.106;2023-02-04T04:54:08;100899.13;;;1.16;100.00
29461;BME280;16428;47.836;35.106;2023-02-04T04:56:36;100894.22;;;1.23;100.00
29461;BME280;16428;47.836;35.106;2023-02-04T04:59:04;100894.06;;;1.13;100.00
29461;BME280;16428;47.836;35.106;2023-02-04T05:01:32;100906.84;;;1.19;100.00
29461;BME280;16428;47.836;35.106;2023-02-04T05:04:00;100912.03;;;1.21;100.00
29461;BME280;16428;47.836;35.106;2023-02-04T05:06:32;100908.78;;;1.17;100.00
29461;BME280;16428;47.836;35.106;2023-02-04T05:09:00;100914.31;;;1.25;100.00
29461;BME280;16428;47.836;35.106;2023-02-04T05:11:28;100920.19;;;1.41;100.00
29461;BME280;16428;47.836;35.106;2023-02-04T05:13:56;100929.81;;;1.42;100.00
29461;BME280;16428;47.836;35.106;2023-02-04T05:16:52;100935.84;;;1.45;100.00
29461;BME280;16428;47.836;35.106;2023-02-04T05:19:23;100938.78;;;1.53;100.00
29461;BME280;16428;47.836;35.106;2023-02-04T05:21:52;100940.13;;;1.34;100.00
29461;BME280;16428;47.836;35.106;2023-02-04T05:24:30;100941.66;;;1.50;100.00
29461;BME280;16428;47.836;35.106;2023-02-04T05:27:01;100944.19;;;1.27;100.00
29461;BME280;16428;47.836;35.106;2023-02-04T05:29:44;100951.28;;;1.51;100.00
29461;BME280;16428;47.836;35.106;2023-02-04T05:32:15;100953.06;;;1.26;100.00
29461;BME280;16428;47.836;35.106;2023-02-04T05:35:06;100957.72;;;1.35;100.00
29461;BME280;16428;47.836;35.106;2023-02-04T05:37:35;100960.28;;;1.24;100.00
29461;BME280;16428;47.836;35.106;2023-02-04T05:40:03;100956.28;;;1.19;100.00
29461;BME280;16428;47.836;35.106;2023-02-04T05:42:53;100966.66;;;1.09;100.00
29461;BME280;16428;47.836;35.106;2023-02-04T05:45:25;100968.16;;;1.13;100.00
29461;BME280;16428;47.836;35.106;2023-02-04T05:47:54;100971.69;;;1.37;100.00
29461;BME280;16428;47.836;35.106;2023-02-04T05:50:36;100976.97;;;1.37;100.00
29461;BME280;16428;47.836;35.106;2023-02-04T05:53:08;100967.25;;;1.25;100.00
29461;BME280;16428;47.836;35.106;2023-02-04T05:55:52;100974.03;;;1.29;100.00
29461;BME280;16428;47.836;35.106;2023-02-04T05:58:26;100980.56;;;1.36;100.00
29461;BME280;16428;47.836;35.106;2023-02-04T06:01:08;100980.06;;;1.31;100.00
29461;BME280;16428;47.836;35.106;2023-02-04T06:03:41;100988.00;;;1.31;100.00
29461;BME280;16428;47.836;35.106;2023-02-04T06:06:23;100983.13;;;1.25;100.00
29461;BME280;16428;47.836;35.106;2023-02-04T06:08:56;100986.31;;;1.30;100.00
29461;BME280;16428;47.836;35.106;2023-02-04T06:11:40;100993.06;;;1.34;100.00
29461;BME280;16428;47.836;35.106;2023-02-04T06:14:09;100986.09;;;1.33;100.00
29461;BME280;16428;47.836;35.106;2023-02-04T06:17:02;100994.75;;;1.35;100.00
29461;BME280;16428;47.836;35.106;2023-02-04T06:19:45;101001.75;;;1.36;100.00
29461;BME280;16428;47.836;35.106;2023-02-04T06:22:18;100996.47;;;1.36;100.00
29461;BME280;16428;47.836;35.106;2023-02-04T06:24:54;100996.22;;;1.39;100.00
29461;BME280;16428;47.836;35.106;2023-02-04T06:27:26;100992.03;;;1.24;100.00
29461;BME280;16428;47.836;35.106;2023-02-04T06:29:57;101000.06;;;1.35;100.00
29461;BME280;16428;47.836;35.106;2023-02-04T06:32:33;101004.63;;;1.57;100.00
29461;BME280;16428;47.836;35.106;2023-02-04T06:35:07;101005.88;;;1.64;100.00
29461;BME280;16428;47.836;35.106;2023-02-04T06:37:38;101005.31;;;1.48;100.00
29461;BME280;16428;47.836;35.106;2023-02-04T06:40:10;101008.28;;;1.44;100.00
29461;BME280;16428;47.836;35.106;2023-02-04T06:42:41;101008.06;;;1.47;100.00
29461;BME280;16428;47.836;35.106;2023-02-04T06:45:09;101015.22;;;1.57;100.00
29461;BME280;16428;47.836;35.106;2023-02-04T06:47:39;101006.81;;;1.63;100.00
29461;BME280;16428;47.836;35.106;2023-02-04T06:50:09;101015.41;;;1.54;100.00
29461;BME280;16428;47.836;35.106;2023-02-04T06:52:52;101014.31;;;1.46;100.00
29461;BME280;16428;47.836;35.106;2023-02-04T06:55:22;101022.19;;;1.58;100.00
29461;BME280;16428;47.836;35.106;2023-02-04T06:57:59;101023.16;;;1.57;100.00
29461;BME280;16428;47.836;35.106;2023-02-04T07:00:30;101026.25;;;1.75;100.00
29461;BME280;16428;47.836;35.106;2023-02-04T07:03:05;101037.44;;;1.67;100.00
29461;BME280;16428;47.836;35.106;2023-02-04T07:05:44;101031.19;;;1.56;100.00
29461;BME280;16428;47.836;35.106;2023-02-04T07:08:13;101038.06;;;1.58;100.00
29461;BME280;16428;47.836;35.106;2023-02-04T07:10:42;101034.34;;;1.85;100.00
29461;BME280;16428;47.836;35.106;2023-02-04T07:13:18;101044.09;;;1.84;100.00
29461;BME280;16428;47.836;35.106;2023-02-04T07:15:48;101043.25;;;1.84;100.00
29461;BME280;16428;47.836;35.106;2023-02-04T07:18:16;101048.81;;;1.81;100.00
29461;BME280;16428;47.836;35.106;2023-02-04T07:20:48;101045.22;;;1.69;100.00
29461;BME280;16428;47.836;35.106;2023-02-04T07:23:18;101050.94;;;1.75;100.00
29461;BME280;16428;47.836;35.106;2023-02-04T07:25:49;101051.84;;;1.87;100.00
29461;BME280;16428;47.836;35.106;2023-02-04T07:28:18;101048.44;;;1.85;100.00
29461;BME280;16428;47.836;35.106;2023-02-04T07:30:47;101043.25;;;1.84;100.00
29461;BME280;16428;47.836;35.106;2023-02-04T07:33:18;101048.34;;;1.87;100.00
29461;BME280;16428;47.836;35.106;2023-02-04T07:35:52;101043.72;;;2.01;100.00
29461;BME280;16428;47.836;35.106;2023-02-04T07:38:28;101057.44;;;1.95;100.00
29461;BME280;16428;47.836;35.106;2023-02-04T07:40:57;101057.91;;;2.00;100.00
29461;BME280;16428;47.836;35.106;2023-02-04T07:43:26;101047.75;;;1.83;100.00
29461;BME280;16428;47.836;35.106;2023-02-04T07:45:55;101059.56;;;1.90;100.00
29461;BME280;16428;47.836;35.106;2023-02-04T07:48:27;101059.56;;;1.90;100.00
29461;BME280;16428;47.836;35.106;2023-02-04T07:50:56;101060.56;;;2.00;100.00
29461;BME280;16428;47.836;35.106;2023-02-04T07:53:25;101059.59;;;2.25;100.00
29461;BME280;16428;47.836;35.106;2023-02-04T07:55:54;101071.53;;;1.96;100.00
29461;BME280;16428;47.836;35.106;2023-02-04T07:58:28;101071.97;;;2.14;100.00
29461;BME280;16428;47.836;35.106;2023-02-04T08:00:58;101067.88;;;2.21;100.00
29461;BME280;16428;47.836;35.106;2023-02-04T08:03:30;101083.28;;;2.16;100.00
29461;BME280;16428;47.836;35.106;2023-02-04T08:06:05;101075.34;;;1.92;100.00
29461;BME280;16428;47.836;35.106;2023-02-04T08:08:35;101085.38;;;1.99;100.00
29461;BME280;16428;47.836;35.106;2023-02-04T08:11:17;101082.09;;;1.72;100.00
29461;BME280;16428;47.836;35.106;2023-02-04T08:13:46;101086.84;;;2.03;100.00
29461;BME280;16428;47.836;35.106;2023-02-04T08:16:43;101082.94;;;2.20;100.00
29461;BME280;16428;47.836;35.106;2023-02-04T08:19:19;101089.72;;;2.24;100.00
29461;BME280;16428;47.836;35.106;2023-02-04T08:22:11;101091.00;;;2.19;100.00
29461;BME280;16428;47.836;35.106;2023-02-04T08:24:47;101092.09;;;2.51;100.00
29461;BME280;16428;47.836;35.106;2023-02-04T08:27:18;101097.56;;;2.26;100.00
29461;BME280;16428;47.836;35.106;2023-02-04T08:29:52;101097.47;;;2.38;100.00
29461;BME280;16428;47.836;35.106;2023-02-04T08:32:22;101101.75;;;2.63;100.00
29461;BME280;16428;47.836;35.106;2023-02-04T08:35:00;101103.53;;;2.87;100.00
29461;BME280;16428;47.836;35.106;2023-02-04T08:37:33;101103.34;;;2.77;100.00
29461;BME280;16428;47.836;35.106;2023-02-04T08:40:01;101100.59;;;2.78;100.00
29461;BME280;16428;47.836;35.106;2023-02-04T08:42:30;101102.09;;;3.16;100.00
29461;BME280;16428;47.836;35.106;2023-02-04T08:44:59;101098.47;;;3.28;100.00
29461;BME280;16428;47.836;35.106;2023-02-04T08:47:46;101097.88;;;3.25;100.00
29461;BME280;16428;47.836;35.106;2023-02-04T08:50:16;101097.25;;;3.21;100.00
29461;BME280;16428;47.836;35.106;2023-02-04T08:52:45;101097.28;;;3.43;100.00
29461;BME280;16428;47.836;35.106;2023-02-04T08:55:13;101100.63;;;3.79;100.00
29461;BME280;16428;47.836;35.106;2023-02-04T08:57:44;101100.66;;;3.01;100.00
29461;BME280;16428;47.836;35.106;2023-02-04T09:00:14;101097.88;;;3.25;100.00
29461;BME280;16428;47.836;35.106;2023-02-04T09:02:44;101094.84;;;3.07;100.00
29461;BME280;16428;47.836;35.106;2023-02-04T09:05:14;101086.63;;;3.21;100.00
29461;BME280;16428;47.836;35.106;2023-02-04T09:07:42;101097.84;;;3.58;100.00
29461;BME280;16428;47.836;35.106;2023-02-04T09:10:10;101093.63;;;3.56;100.00
29461;BME280;16428;47.836;35.106;2023-02-04T09:12:42;101102.06;;;3.72;100.00
29461;BME280;16428;47.836;35.106;2023-02-04T09:15:16;101098.91;;;3.67;100.00
29461;BME280;16428;47.836;35.106;2023-02-04T09:17:50;101091.72;;;4.01;100.00
29461;BME280;16428;47.836;35.106;2023-02-04T09:20:29;101088.13;;;3.91;100.00
29461;BME280;16428;47.836;35.106;2023-02-04T09:22:59;101095.94;;;4.03;100.00
29461;BME280;16428;47.836;35.106;2023-02-04T09:25:32;101095.22;;;4.01;100.00
29461;BME280;16428;47.836;35.106;2023-02-04T09:28:00;101098.72;;;4.34;100.00
29461;BME280;16428;47.836;35.106;2023-02-04T09:30:30;101096.56;;;4.39;100.00
29461;BME280;16428;47.836;35.106;2023-02-04T09:33:00;101101.50;;;4.64;100.00
29461;BME280;16428;47.836;35.106;2023-02-04T09:35:32;101100.53;;;4.12;100.00
29461;BME280;16428;47.836;35.106;2023-02-04T09:38:48;101085.38;;;4.24;100.00
29461;BME280;16428;47.836;35.106;2023-02-04T09:41:37;101083.84;;;4.42;100.00
29461;BME280;16428;47.836;35.106;2023-02-04T09:44:36;101084.06;;;4.18;100.00
29461;BME280;16428;47.836;35.106;2023-02-04T09:47:05;101073.13;;;4.33;100.00
29461;BME280;16428;47.836;35.106;2023-02-04T09:49:34;101080.28;;;3.89;100.00
29461;BME280;16428;47.836;35.106;2023-02-04T09:52:10;101078.50;;;3.78;100.00
29461;BME280;16428;47.836;35.106;2023-02-04T09:54:40;101074.72;;;3.92;100.00
29461;BME280;16428;47.836;35.106;2023-02-04T09:57:17;101078.97;;;4.27;97.71
29461;BME280;16428;47.836;35.106;2023-02-04T09:59:46;101073.91;;;4.65;99.80
29461;BME280;16428;47.836;35.106;2023-02-04T10:02:21;101078.22;;;5.08;91.31
29461;BME280;16428;47.836;35.106;2023-02-04T10:05:17;101073.31;;;5.43;91.27
29461;BME280;16428;47.836;35.106;2023-02-04T10:08:27;101081.41;;;5.72;93.26
29461;BME280;16428;47.836;35.106;2023-02-04T10:11:25;101073.97;;;5.76;94.22
29461;BME280;16428;47.836;35.106;2023-02-04T10:13:55;101066.38;;;5.71;89.52
29461;BME280;16428;47.836;35.106;2023-02-04T10:16:28;101074.63;;;5.58;93.46
29461;BME280;16428;47.836;35.106;2023-02-04T10:19:01;101066.78;;;5.66;92.61
29461;BME280;16428;47.836;35.106;2023-02-04T10:21:35;101058.78;;;5.66;90.36
29461;BME280;16428;47.836;35.106;2023-02-04T10:24:15;101073.94;;;6.25;88.29
29461;BME280;16428;47.836;35.106;2023-02-04T10:26:44;101066.84;;;5.86;88.98
29461;BME280;16428;47.836;35.106;2023-02-04T10:29:15;101057.78;;;6.08;89.95
29461;BME280;16428;47.836;35.106;2023-02-04T10:31:45;101060.72;;;5.95;88.52
29461;BME280;16428;47.836;35.106;2023-02-04T10:39:47;101089.31;;;5.43;83.76
29461;BME280;16428;47.836;35.106;2023-02-04T10:42:23;101091.25;;;5.41;85.33
29461;BME280;16428;47.836;35.106;2023-02-04T10:44:52;101092.28;;;5.50;86.13
29461;BME280;16428;47.836;35.106;2023-02-04T10:47:29;101098.03;;;5.45;89.43
29461;BME280;16428;47.836;35.106;2023-02-04T10:50:06;101096.28;;;5.75;84.32
29461;BME280;16428;47.836;35.106;2023-02-04T10:52:44;101104.13;;;5.36;82.38
29461;BME280;16428;47.836;35.106;2023-02-04T10:55:25;101095.72;;;5.01;85.63
29461;BME280;16428;47.836;35.106;2023-02-04T10:57:56;101100.19;;;5.30;85.49
29461;BME280;16428;47.836;35.106;2023-02-04T11:00:30;101096.81;;;4.56;85.50
29461;BME280;16428;47.836;35.106;2023-02-04T11:03:25;101100.84;;;4.92;86.73
29461;BME280;16428;47.836;35.106;2023-02-04T11:09:23;101108.25;;;4.68;87.61
29461;BME280;16428;47.836;35.106;2023-02-04T11:13:04;101102.53;;;4.52;91.41
29461;BME280;16428;47.836;35.106;2023-02-04T11:16:29;101112.19;;;4.74;89.53
29461;BME280;16428;47.836;35.106;2023-02-04T11:19:37;101110.56;;;4.09;89.36
29461;BME280;16428;47.836;35.106;2023-02-04T11:22:55;101114.56;;;4.03;89.94
29461;BME280;16428;47.836;35.106;2023-02-04T11:26:13;101114.44;;;4.05;91.09
29461;BME280;16428;47.836;35.106;2023-02-04T11:29:34;101120.22;;;3.99;91.01
29461;BME280;16428;47.836;35.106;2023-02-04T11:32:28;101127.50;;;4.29;95.07
29461;BME280;16428;47.836;35.106;2023-02-04T11:35:20;101119.59;;;4.17;89.44
29461;BME280;16428;47.836;35.106;2023-02-04T11:38:48;101125.66;;;4.08;90.63
29461;BME280;16428;47.836;35.106;2023-02-04T11:41:28;101129.69;;;3.92;92.74
29461;BME280;16428;47.836;35.106;2023-02-04T11:43:57;101121.47;;;3.95;90.73
29461;BME280;16428;47.836;35.106;2023-02-04T11:46:28;101121.16;;;3.77;93.35
29461;BME280;16428;47.836;35.106;2023-02-04T12:01:50;101143.25;;;3.44;91.77
29461;BME280;16428;47.836;35.106;2023-02-04T12:04:25;101147.34;;;3.26;90.33
29461;BME280;16428;47.836;35.106;2023-02-04T12:07:01;101152.44;;;3.29;91.85
29461;BME280;16428;47.836;35.106;2023-02-04T12:09:32;101163.78;;;3.42;91.15
29461;BME280;16428;47.836;35.106;2023-02-04T12:12:02;101156.38;;;3.12;89.59
29461;BME280;16428;47.836;35.106;2023-02-04T12:14:34;101159.78;;;3.36;91.04
29461;BME280;16428;47.836;35.106;2023-02-04T12:17:19;101160.72;;;3.02;88.82
29461;BME280;16428;47.836;35.106;2023-02-04T12:19:48;101159.06;;;3.23;90.41
29461;BME280;16428;47.836;35.106;2023-02-04T12:22:16;101164.13;;;3.15;88.91
29461;BME280;16428;47.836;35.106;2023-02-04T12:24:45;101167.31;;;2.85;92.27
29461;BME280;16428;47.836;35.106;2023-02-04T12:27:14;101167.34;;;2.96;90.39
29461;BME280;16428;47.836;35.106;2023-02-04T12:29:42;101165.31;;;3.00;90.67
29461;BME280;16428;47.836;35.106;2023-02-04T12:32:10;101175.19;;;3.09;89.38
29461;BME280;16428;47.836;35.106;2023-02-04T12:34:42;101166.25;;;2.64;90.46
29461;BME280;16428;47.836;35.106;2023-02-04T12:37:09;101166.03;;;2.67;94.17
29461;BME280;16428;47.836;35.106;2023-02-04T12:39:37;101168.34;;;2.71;93.83
29461;BME280;16428;47.836;35.106;2023-02-04T12:42:06;101171.34;;;2.67;96.68
29461;BME280;16428;47.836;35.106;2023-02-04T12:44:34;101174.00;;;2.67;98.64
29461;BME280;16428;47.836;35.106;2023-02-04T12:47:02;101180.88;;;2.69;97.15
29461;BME280;16428;47.836;35.106;2023-02-04T12:49:31;101181.25;;;2.76;96.82
29461;BME280;16428;47.836;35.106;2023-02-04T12:52:29;101171.94;;;2.59;97.76
29461;BME280;16428;47.836;35.106;2023-02-04T13:21:50;101196.16;;;1.94;99.14
29461;BME280;16428;47.836;35.106;2023-02-04T13:24:18;101205.25;;;1.90;99.39
29461;BME280;16428;47.836;35.106;2023-02-04T13:26:48;101210.28;;;1.69;99.05
29461;BME280;16428;47.836;35.106;2023-02-04T13:29:17;101202.19;;;1.84;98.97
29461;BME280;16428;47.836;35.106;2023-02-04T13:31:45;101210.03;;;1.85;99.33
29461;BME280;16428;47.836;35.106;2023-02-04T13:34:14;101214.25;;;2.00;97.74
29461;BME280;16428;47.836;35.106;2023-02-04T13:36:42;101211.09;;;1.95;98.09
29461;BME280;16428;47.836;35.106;2023-02-04T13:39:10;101226.66;;;1.87;100.00
29461;BME280;16428;47.836;35.106;2023-02-04T13:41:38;101219.88;;;1.96;99.80
29461;BME280;16428;47.836;35.106;2023-02-04T13:44:07;101221.09;;;1.79;99.79
29461;BME280;16428;47.836;35.106;2023-02-04T13:46:36;101213.78;;;1.70;98.76
29461;BME280;16428;47.836;35.106;2023-02-04T13:49:04;101218.97;;;1.59;100.00
29461;BME280;16428;47.836;35.106;2023-02-04T13:51:34;101212.84;;;1.46;100.00
29461;BME280;16428;47.836;35.106;2023-02-04T13:56:49;101209.66;;;1.40;100.00
29461;BME280;16428;47.836;35.106;2023-02-04T13:59:17;101217.81;;;1.63;100.00
29461;BME280;16428;47.836;35.106;2023-02-04T14:01:47;101214.00;;;1.54;99.94
29461;BME280;16428;47.836;35.106;2023-02-04T14:13:20;101211.69;;;1.50;100.00
29461;BME280;16428;47.836;35.106;2023-02-04T14:15:48;101210.31;;;1.44;100.00